sensor_id;sensor_type;location;lat;lon;timestamp;temperature;humidity
29713;DHT22;16623;53.632;10.016;2024-01-11T00:00:48;-0.40;99.90
29713;DHT22;16623;53.632;10.016;2024-01-11T00:03:14;-0.40;99.90
29713;DHT22;16623;53.632;10.016;2024-01-11T00:05:40;-0.40;99.90
29713;DHT22;16623;53.632;10.016;2024-01-11T00:08:07;-0.30;99.90
29713;DHT22;16623;53.632;10.016;2024-01-11T00:10:32;-0.30;99.90
29713;DHT22;16623;53.632;10.016;2024-01-11T00:12:58;-0.50;99.90
29713;DHT22;16623;53.632;10.016;2024-01-11T00:15:23;-0.50;99.90
29713;DHT22;16623;53.632;10.016;2024-01-11T00:17:49;-0.40;99.90
29713;DHT22;16623;53.632;10.016;2024-01-11T00:20:14;-0.40;99.90
29713;DHT22;16623;53.632;10.016;2024-01-11T00:22:40;0.20;99.90
29713;DHT22;16623;53.632;10.016;2024-01-11T00:25:06;-0.40;99.90
29713;DHT22;16623;53.632;10.016;2024-01-11T00:27:32;-0.40;99.90
29713;DHT22;16623;53.632;10.016;2024-01-11T00:29:57;-0.40;99.90
29713;DHT22;16623;53.632;10.016;2024-01-11T00:32:23;-0.50;99.90
29713;DHT22;16623;53.632;10.016;2024-01-11T00:34:48;-0.40;99.90
29713;DHT22;16623;53.632;10.016;2024-01-11T00:37:14;-0.40;99.90
29713;DHT22;16623;53.632;10.016;2024-01-11T00:39:39;-0.40;99.90
29713;DHT22;16623;53.632;10.016;2024-01-11T00:44:31;-0.40;99.90
29713;DHT22;16623;53.632;10.016;2024-01-11T00:46:56;-0.40;99.90
29713;DHT22;16623;53.632;10.016;2024-01-11T00:49:22;-0.50;99.90
29713;DHT22;16623;53.632;10.016;2024-01-11T00:51:47;-0.50;99.90
29713;DHT22;16623;53.632;10.016;2024-01-11T00:54:13;-0.50;99.90
29713;DHT22;16623;53.632;10.016;2024-01-11T00:56:39;-0.40;99.90
29713;DHT22;16623;53.632;10.016;2024-01-11T00:59:04;-0.40;99.90
29713;DHT22;16623;53.632;10.016;2024-01-11T01:01:30;-0.40;99.90
29713;DHT22;16623;53.632;10.016;2024-01-11T01:06:22;-0.50;99.90
29713;DHT22;16623;53.632;10.016;2024-01-11T01:08:47;-0.40;99.90
29713;DHT22;16623;53.632;10.016;2024-01-11T01:11:13;-0.40;99.90
29713;DHT22;16623;53.632;10.016;2024-01-11T01:13:38;-0.50;99.90
29713;DHT22;16623;53.632;10.016;2024-01-11T01:16:04;-0.50;99.90
29713;DHT22;16623;53.632;10.016;2024-01-11T01:18:29;-0.50;99.90
29713;DHT22;16623;53.632;10.016;2024-01-11T01:20:55;-0.50;99.90
29713;DHT22;16623;53.632;10.016;2024-01-11T01:23:21;-0.60;99.90
29713;DHT22;16623;53.632;10.016;2024-01-11T01:25:48;-0.60;99.90
29713;DHT22;16623;53.632;10.016;2024-01-11T01:28:13;-0.60;99.90
29713;DHT22;16623;53.632;10.016;2024-01-11T01:30:39;-0.60;99.90
29713;DHT22;16623;53.632;10.016;2024-01-11T01:33:04;-0.70;99.90
29713;DHT22;16623;53.632;10.016;2024-01-11T01:35:30;-0.60;99.90
29713;DHT22;16623;53.632;10.016;2024-01-11T01:37:55;-0.60;99.90
29713;DHT22;16623;53.632;10.016;2024-01-11T01:40:21;-0.60;99.90
29713;DHT22;16623;53.632;10.016;2024-01-11T01:42:48;-0.70;99.90
29713;DHT22;16623;53.632;10.016;2024-01-11T01:45:14;-0.70;99.90
29713;DHT22;16623;53.632;10.016;2024-01-11T01:47:40;-0.70;99.90
29713;DHT22;16623;53.632;10.016;2024-01-11T01:50:09;-0.60;99.90
29713;DHT22;16623;53.632;10.016;2024-01-11T01:52:36;-0.70;99.90
29713;DHT22;16623;53.632;10.016;2024-01-11T01:55:03;-0.70;99.90
29713;DHT22;16623;53.632;10.016;2024-01-11T01:57:31;-0.60;99.90
29713;DHT22;16623;53.632;10.016;2024-01-11T01:59:57;-0.70;99.90
29713;DHT22;16623;53.632;10.016;2024-01-11T02:02:23;-0.80;99.90
29713;DHT22;16623;53.632;10.016;2024-01-11T02:04:49;-0.80;99.90
29713;DHT22;16623;53.632;10.016;2024-01-11T02:07:15;-0.80;99.90
29713;DHT22;16623;53.632;10.016;2024-01-11T02:09:42;-0.70;99.90
29713;DHT22;16623;53.632;10.016;2024-01-11T02:12:09;-0.60;99.90
29713;DHT22;16623;53.632;10.016;2024-01-11T02:14:37;-0.70;99.90
29713;DHT22;16623;53.632;10.016;2024-01-11T02:17:03;-0.70;99.90
29713;DHT22;16623;53.632;10.016;2024-01-11T02:19:28;-0.70;99.90
29713;DHT22;16623;53.632;10.016;2024-01-11T02:21:54;-0.70;99.90
29713;DHT22;16623;53.632;10.016;2024-01-11T02:24:23;-0.70;99.90
29713;DHT22;16623;53.632;10.016;2024-01-11T02:26:58;-0.80;99.90
29713;DHT22;16623;53.632;10.016;2024-01-11T02:29:25;-0.70;99.90
29713;DHT22;16623;53.632;10.016;2024-01-11T02:31:51;-0.80;99.90
29713;DHT22;16623;53.632;10.016;2024-01-11T02:34:17;-0.90;99.90
29713;DHT22;16623;53.632;10.016;2024-01-11T02:36:42;-0.90;99.90
29713;DHT22;16623;53.632;10.016;2024-01-11T02:39:09;-1.00;99.90
29713;DHT22;16623;53.632;10.016;2024-01-11T02:41:36;-0.90;99.90
29713;DHT22;16623;53.632;10.016;2024-01-11T02:44:01;-0.80;99.90
29713;DHT22;16623;53.632;10.016;2024-01-11T02:46:27;-0.80;99.90
29713;DHT22;16623;53.632;10.016;2024-01-11T02:48:52;-0.70;99.90
29713;DHT22;16623;53.632;10.016;2024-01-11T02:51:19;-0.70;99.90
29713;DHT22;16623;53.632;10.016;2024-01-11T02:53:45;-0.60;99.90
29713;DHT22;16623;53.632;10.016;2024-01-11T02:56:10;-0.60;99.90
29713;DHT22;16623;53.632;10.016;2024-01-11T02:58:36;-0.60;99.90
29713;DHT22;16623;53.632;10.016;2024-01-11T03:01:01;-0.60;99.90
29713;DHT22;16623;53.632;10.016;2024-01-11T03:03:27;-0.60;99.90
29713;DHT22;16623;53.632;10.016;2024-01-11T03:05:52;-0.60;99.90
29713;DHT22;16623;53.632;10.016;2024-01-11T03:08:18;-0.60;99.90
29713;DHT22;16623;53.632;10.016;2024-01-11T03:10:49;-0.60;99.90
29713;DHT22;16623;53.632;10.016;2024-01-11T03:13:15;-0.40;99.90
29713;DHT22;16623;53.632;10.016;2024-01-11T03:15:41;-0.60;99.90
29713;DHT22;16623;53.632;10.016;2024-01-11T03:18:06;-0.60;99.90
29713;DHT22;16623;53.632;10.016;2024-01-11T03:20:32;-0.50;99.90
29713;DHT22;16623;53.632;10.016;2024-01-11T03:22:57;-0.50;99.90
29713;DHT22;16623;53.632;10.016;2024-01-11T03:25:23;-0.40;99.90
29713;DHT22;16623;53.632;10.016;2024-01-11T03:27:48;-0.40;99.90
29713;DHT22;16623;53.632;10.016;2024-01-11T03:30:14;-0.40;99.90
29713;DHT22;16623;53.632;10.016;2024-01-11T03:32:41;-0.40;99.90
29713;DHT22;16623;53.632;10.016;2024-01-11T03:35:08;-0.40;99.90
29713;DHT22;16623;53.632;10.016;2024-01-11T03:37:34;-0.50;99.90
29713;DHT22;16623;53.632;10.016;2024-01-11T03:40:00;-0.50;99.90
29713;DHT22;16623;53.632;10.016;2024-01-11T03:42:26;-0.60;99.90
29713;DHT22;16623;53.632;10.016;2024-01-11T03:44:51;-0.60;99.90
29713;DHT22;16623;53.632;10.016;2024-01-11T03:47:16;-0.60;99.90
29713;DHT22;16623;53.632;10.016;2024-01-11T03:49:42;-0.50;99.90
29713;DHT22;16623;53.632;10.016;2024-01-11T03:52:07;-0.70;99.90
29713;DHT22;16623;53.632;10.016;2024-01-11T03:54:33;-0.60;99.90
29713;DHT22;16623;53.632;10.016;2024-01-11T03:56:59;-0.60;99.90
29713;DHT22;16623;53.632;10.016;2024-01-11T03:59:24;-0.60;99.90
29713;DHT22;16623;53.632;10.016;2024-01-11T04:01:50;-0.50;99.90
29713;DHT22;16623;53.632;10.016;2024-01-11T04:04:16;-0.50;99.90
29713;DHT22;16623;53.632;10.016;2024-01-11T04:06:41;-0.50;99.90
29713;DHT22;16623;53.632;10.016;2024-01-11T04:09:07;-0.50;99.90
29713;DHT22;16623;53.632;10.016;2024-01-11T04:11:32;-0.50;99.90
29713;DHT22;16623;53.632;10.016;2024-01-11T04:13:58;-0.50;99.90
29713;DHT22;16623;53.632;10.016;2024-01-11T04:16:23;-0.50;99.90
29713;DHT22;16623;53.632;10.016;2024-01-11T04:18:49;-0.40;99.90
29713;DHT22;16623;53.632;10.016;2024-01-11T04:21:25;-0.60;99.90
29713;DHT22;16623;53.632;10.016;2024-01-11T04:23:53;-0.60;99.90
29713;DHT22;16623;53.632;10.016;2024-01-11T04:26:19;-0.60;99.90
29713;DHT22;16623;53.632;10.016;2024-01-11T04:28:45;-0.60;99.90
29713;DHT22;16623;53.632;10.016;2024-01-11T04:31:11;-0.60;99.90
29713;DHT22;16623;53.632;10.016;2024-01-11T04:33:40;-0.60;99.90
29713;DHT22;16623;53.632;10.016;2024-01-11T04:36:06;-0.50;99.90
29713;DHT22;16623;53.632;10.016;2024-01-11T04:38:32;-0.50;99.90
29713;DHT22;16623;53.632;10.016;2024-01-11T04:40:57;-0.40;99.90
29713;DHT22;16623;53.632;10.016;2024-01-11T04:43:23;-0.40;99.90
29713;DHT22;16623;53.632;10.016;2024-01-11T04:45:48;-0.40;99.90
29713;DHT22;16623;53.632;10.016;2024-01-11T04:48:14;-0.50;99.90
29713;DHT22;16623;53.632;10.016;2024-01-11T04:50:39;-0.40;99.90
29713;DHT22;16623;53.632;10.016;2024-01-11T04:53:05;-0.40;99.90
29713;DHT22;16623;53.632;10.016;2024-01-11T04:55:30;-0.50;99.90
29713;DHT22;16623;53.632;10.016;2024-01-11T04:57:56;-0.50;99.90
29713;DHT22;16623;53.632;10.016;2024-01-11T05:00:21;-0.60;99.90
29713;DHT22;16623;53.632;10.016;2024-01-11T05:02:47;-0.90;99.90
29713;DHT22;16623;53.632;10.016;2024-01-11T05:05:13;-1.00;99.90
29713;DHT22;16623;53.632;10.016;2024-01-11T05:07:38;-0.90;99.90
29713;DHT22;16623;53.632;10.016;2024-01-11T05:10:04;-0.80;99.90
29713;DHT22;16623;53.632;10.016;2024-01-11T05:12:30;-0.80;99.90
29713;DHT22;16623;53.632;10.016;2024-01-11T05:14:55;-0.90;99.90
29713;DHT22;16623;53.632;10.016;2024-01-11T05:17:21;-0.80;99.90
29713;DHT22;16623;53.632;10.016;2024-01-11T05:19:46;-0.80;99.90
29713;DHT22;16623;53.632;10.016;2024-01-11T05:22:12;-0.70;99.90
29713;DHT22;16623;53.632;10.016;2024-01-11T05:24:37;-0.70;99.90
29713;DHT22;16623;53.632;10.016;2024-01-11T05:27:03;-0.70;99.90
29713;DHT22;16623;53.632;10.016;2024-01-11T05:29:28;-0.60;99.90
29713;DHT22;16623;53.632;10.016;2024-01-11T05:31:54;-0.60;99.90
29713;DHT22;16623;53.632;10.016;2024-01-11T05:34:19;-0.60;99.90
29713;DHT22;16623;53.632;10.016;2024-01-11T05:36:45;-0.50;99.90
29713;DHT22;16623;53.632;10.016;2024-01-11T05:39:10;-0.50;99.90
29713;DHT22;16623;53.632;10.016;2024-01-11T05:41:36;-0.50;99.90
29713;DHT22;16623;53.632;10.016;2024-01-11T05:44:01;-0.50;99.90
29713;DHT22;16623;53.632;10.016;2024-01-11T05:46:27;-0.50;99.90
29713;DHT22;16623;53.632;10.016;2024-01-11T05:48:52;-0.60;99.90
29713;DHT22;16623;53.632;10.016;2024-01-11T05:51:18;-0.60;99.90
29713;DHT22;16623;53.632;10.016;2024-01-11T05:53:43;-0.60;99.90
29713;DHT22;16623;53.632;10.016;2024-01-11T05:56:09;-0.60;99.90
29713;DHT22;16623;53.632;10.016;2024-01-11T05:58:35;-0.60;99.90
29713;DHT22;16623;53.632;10.016;2024-01-11T06:01:03;-0.50;99.90
29713;DHT22;16623;53.632;10.016;2024-01-11T06:03:28;-0.50;99.90
29713;DHT22;16623;53.632;10.016;2024-01-11T06:05:55;-0.40;99.90
29713;DHT22;16623;53.632;10.016;2024-01-11T06:08:21;-0.30;99.90
29713;DHT22;16623;53.632;10.016;2024-01-11T06:10:46;-0.30;99.90
29713;DHT22;16623;53.632;10.016;2024-01-11T06:13:12;-0.30;99.90
29713;DHT22;16623;53.632;10.016;2024-01-11T06:15:37;-0.30;99.90
29713;DHT22;16623;53.632;10.016;2024-01-11T06:18:03;-0.40;99.90
29713;DHT22;16623;53.632;10.016;2024-01-11T06:20:30;-0.20;99.90
29713;DHT22;16623;53.632;10.016;2024-01-11T06:22:55;-0.30;99.90
29713;DHT22;16623;53.632;10.016;2024-01-11T06:25:21;-0.30;99.90
29713;DHT22;16623;53.632;10.016;2024-01-11T06:27:47;-0.30;99.90
29713;DHT22;16623;53.632;10.016;2024-01-11T06:30:13;-0.30;99.90
29713;DHT22;16623;53.632;10.016;2024-01-11T06:32:38;-0.20;99.90
29713;DHT22;16623;53.632;10.016;2024-01-11T06:35:06;-0.30;99.90
29713;DHT22;16623;53.632;10.016;2024-01-11T06:37:31;-0.30;99.90
29713;DHT22;16623;53.632;10.016;2024-01-11T06:39:57;-0.40;99.90
29713;DHT22;16623;53.632;10.016;2024-01-11T06:42:22;-0.20;99.90
29713;DHT22;16623;53.632;10.016;2024-01-11T06:44:48;-0.20;99.90
29713;DHT22;16623;53.632;10.016;2024-01-11T06:47:13;-0.20;99.90
29713;DHT22;16623;53.632;10.016;2024-01-11T06:49:40;-0.10;99.90
29713;DHT22;16623;53.632;10.016;2024-01-11T06:52:06;-0.10;99.90
29713;DHT22;16623;53.632;10.016;2024-01-11T06:54:32;-0.20;99.90
29713;DHT22;16623;53.632;10.016;2024-01-11T06:56:58;-0.20;99.90
29713;DHT22;16623;53.632;10.016;2024-01-11T06:59:23;-0.30;99.90
29713;DHT22;16623;53.632;10.016;2024-01-11T07:01:49;-0.40;99.90
29713;DHT22;16623;53.632;10.016;2024-01-11T07:04:15;-0.30;99.90
29713;DHT22;16623;53.632;10.016;2024-01-11T07:06:40;-0.30;99.90
29713;DHT22;16623;53.632;10.016;2024-01-11T07:09:06;-0.30;99.90
29713;DHT22;16623;53.632;10.016;2024-01-11T07:11:32;-0.40;99.90
29713;DHT22;16623;53.632;10.016;2024-01-11T07:13:58;-0.40;99.90
29713;DHT22;16623;53.632;10.016;2024-01-11T07:16:24;-0.40;99.90
29713;DHT22;16623;53.632;10.016;2024-01-11T07:18:49;-0.40;99.90
29713;DHT22;16623;53.632;10.016;2024-01-11T07:21:24;-0.30;99.90
29713;DHT22;16623;53.632;10.016;2024-01-11T07:23:57;-0.30;99.90
29713;DHT22;16623;53.632;10.016;2024-01-11T07:26:23;-0.30;99.90
29713;DHT22;16623;53.632;10.016;2024-01-11T07:28:49;-0.20;99.90
29713;DHT22;16623;53.632;10.016;2024-01-11T07:31:15;-0.20;99.90
29713;DHT22;16623;53.632;10.016;2024-01-11T07:33:40;-0.10;99.90
29713;DHT22;16623;53.632;10.016;2024-01-11T07:36:06;-0.10;99.90
29713;DHT22;16623;53.632;10.016;2024-01-11T07:38:32;-0.10;99.90
29713;DHT22;16623;53.632;10.016;2024-01-11T07:40:57;-0.10;99.90
29713;DHT22;16623;53.632;10.016;2024-01-11T07:43:23;0.10;99.90
29713;DHT22;16623;53.632;10.016;2024-01-11T07:45:49;0.00;99.90
29713;DHT22;16623;53.632;10.016;2024-01-11T07:48:15;0.10;99.90
29713;DHT22;16623;53.632;10.016;2024-01-11T07:50:41;0.10;99.90
29713;DHT22;16623;53.632;10.016;2024-01-11T07:53:07;0.10;99.90
29713;DHT22;16623;53.632;10.016;2024-01-11T07:55:32;0.00;99.90
29713;DHT22;16623;53.632;10.016;2024-01-11T07:57:58;0.00;99.90
29713;DHT22;16623;53.632;10.016;2024-01-11T08:00:23;0.10;99.90
29713;DHT22;16623;53.632;10.016;2024-01-11T08:02:49;0.10;99.90
29713;DHT22;16623;53.632;10.016;2024-01-11T08:05:15;0.10;99.90
29713;DHT22;16623;53.632;10.016;2024-01-11T08:07:41;0.10;99.90
29713;DHT22;16623;53.632;10.016;2024-01-11T08:10:10;0.20;99.90
29713;DHT22;16623;53.632;10.016;2024-01-11T08:12:36;0.20;99.90
29713;DHT22;16623;53.632;10.016;2024-01-11T08:15:02;0.20;99.90
29713;DHT22;16623;53.632;10.016;2024-01-11T08:17:28;0.30;99.90
29713;DHT22;16623;53.632;10.016;2024-01-11T08:19:54;0.20;99.90
29713;DHT22;16623;53.632;10.016;2024-01-11T08:22:22;0.20;99.90
29713;DHT22;16623;53.632;10.016;2024-01-11T08:24:47;0.20;99.90
29713;DHT22;16623;53.632;10.016;2024-01-11T08:27:13;0.30;99.90
29713;DHT22;16623;53.632;10.016;2024-01-11T08:29:38;0.30;99.90
29713;DHT22;16623;53.632;10.016;2024-01-11T08:32:06;0.30;99.90
29713;DHT22;16623;53.632;10.016;2024-01-11T08:34:32;0.30;99.90
29713;DHT22;16623;53.632;10.016;2024-01-11T08:36:57;0.40;99.90
29713;DHT22;16623;53.632;10.016;2024-01-11T08:39:23;0.30;99.90
29713;DHT22;16623;53.632;10.016;2024-01-11T08:41:49;0.50;99.90
29713;DHT22;16623;53.632;10.016;2024-01-11T08:44:14;0.40;99.90
29713;DHT22;16623;53.632;10.016;2024-01-11T08:46:40;0.40;99.90
29713;DHT22;16623;53.632;10.016;2024-01-11T08:49:06;0.50;99.90
29713;DHT22;16623;53.632;10.016;2024-01-11T08:51:32;0.50;99.90
29713;DHT22;16623;53.632;10.016;2024-01-11T08:53:57;0.60;99.90
29713;DHT22;16623;53.632;10.016;2024-01-11T08:56:23;0.70;99.90
29713;DHT22;16623;53.632;10.016;2024-01-11T08:58:49;0.70;99.90
29713;DHT22;16623;53.632;10.016;2024-01-11T09:01:15;0.70;99.90
29713;DHT22;16623;53.632;10.016;2024-01-11T09:03:41;0.70;99.90
29713;DHT22;16623;53.632;10.016;2024-01-11T09:06:07;0.80;99.90
29713;DHT22;16623;53.632;10.016;2024-01-11T09:08:32;0.80;99.90
29713;DHT22;16623;53.632;10.016;2024-01-11T09:10:59;0.80;99.90
29713;DHT22;16623;53.632;10.016;2024-01-11T09:13:25;0.80;99.90
29713;DHT22;16623;53.632;10.016;2024-01-11T09:15:51;0.80;99.90
29713;DHT22;16623;53.632;10.016;2024-01-11T09:18:21;0.90;99.90
29713;DHT22;16623;53.632;10.016;2024-01-11T09:20:46;0.80;99.90
29713;DHT22;16623;53.632;10.016;2024-01-11T09:23:13;0.90;99.90
29713;DHT22;16623;53.632;10.016;2024-01-11T09:25:38;0.80;99.90
29713;DHT22;16623;53.632;10.016;2024-01-11T09:28:04;0.80;99.90
29713;DHT22;16623;53.632;10.016;2024-01-11T09:30:29;0.90;99.90
29713;DHT22;16623;53.632;10.016;2024-01-11T09:32:56;1.10;99.90
29713;DHT22;16623;53.632;10.016;2024-01-11T09:35:22;1.00;99.90
29713;DHT22;16623;53.632;10.016;2024-01-11T09:37:48;1.00;99.90
29713;DHT22;16623;53.632;10.016;2024-01-11T09:40:14;1.10;99.90
29713;DHT22;16623;53.632;10.016;2024-01-11T09:42:40;1.20;99.90
29713;DHT22;16623;53.632;10.016;2024-01-11T09:45:16;1.20;99.90
29713;DHT22;16623;53.632;10.016;2024-01-11T09:47:43;1.10;99.90
29713;DHT22;16623;53.632;10.016;2024-01-11T09:50:11;1.10;99.90
29713;DHT22;16623;53.632;10.016;2024-01-11T09:52:45;1.10;99.90
29713;DHT22;16623;53.632;10.016;2024-01-11T09:55:12;1.20;99.90
29713;DHT22;16623;53.632;10.016;2024-01-11T09:57:41;1.20;99.90
29713;DHT22;16623;53.632;10.016;2024-01-11T10:00:09;1.10;99.90
29713;DHT22;16623;53.632;10.016;2024-01-11T10:02:38;1.20;99.90
29713;DHT22;16623;53.632;10.016;2024-01-11T10:05:05;1.30;99.90
29713;DHT22;16623;53.632;10.016;2024-01-11T10:07:32;1.20;99.90
29713;DHT22;16623;53.632;10.016;2024-01-11T10:09:59;1.20;99.90
29713;DHT22;16623;53.632;10.016;2024-01-11T10:12:28;1.00;99.90
29713;DHT22;16623;53.632;10.016;2024-01-11T10:14:54;1.10;99.90
29713;DHT22;16623;53.632;10.016;2024-01-11T10:17:20;1.20;99.90
29713;DHT22;16623;53.632;10.016;2024-01-11T10:19:46;1.20;99.90
29713;DHT22;16623;53.632;10.016;2024-01-11T10:22:11;1.20;99.90
29713;DHT22;16623;53.632;10.016;2024-01-11T10:24:42;1.20;99.90
29713;DHT22;16623;53.632;10.016;2024-01-11T10:27:09;1.20;99.90
29713;DHT22;16623;53.632;10.016;2024-01-11T10:29:35;1.40;99.90
29713;DHT22;16623;53.632;10.016;2024-01-11T10:32:03;1.40;99.90
29713;DHT22;16623;53.632;10.016;2024-01-11T10:34:28;1.40;99.90
29713;DHT22;16623;53.632;10.016;2024-01-11T10:36:54;1.40;99.90
29713;DHT22;16623;53.632;10.016;2024-01-11T10:39:24;1.50;99.90
29713;DHT22;16623;53.632;10.016;2024-01-11T10:42:05;1.50;99.90
29713;DHT22;16623;53.632;10.016;2024-01-11T10:44:33;1.40;99.90
29713;DHT22;16623;53.632;10.016;2024-01-11T10:47:02;1.50;99.90
29713;DHT22;16623;53.632;10.016;2024-01-11T10:49:30;1.50;99.90
29713;DHT22;16623;53.632;10.016;2024-01-11T10:52:02;1.20;99.90
29713;DHT22;16623;53.632;10.016;2024-01-11T10:54:28;1.10;99.90
29713;DHT22;16623;53.632;10.016;2024-01-11T10:56:56;1.20;99.90
29713;DHT22;16623;53.632;10.016;2024-01-11T10:59:26;1.20;99.90
29713;DHT22;16623;53.632;10.016;2024-01-11T11:01:53;1.40;99.90
29713;DHT22;16623;53.632;10.016;2024-01-11T11:04:25;1.40;99.90
29713;DHT22;16623;53.632;10.016;2024-01-11T11:06:52;1.50;99.90
29713;DHT22;16623;53.632;10.016;2024-01-11T11:09:20;1.50;99.90
29713;DHT22;16623;53.632;10.016;2024-01-11T11:11:47;1.50;99.90
29713;DHT22;16623;53.632;10.016;2024-01-11T11:14:14;1.50;99.90
29713;DHT22;16623;53.632;10.016;2024-01-11T11:16:40;1.50;99.90
29713;DHT22;16623;53.632;10.016;2024-01-11T11:19:06;1.60;99.90
29713;DHT22;16623;53.632;10.016;2024-01-11T11:21:32;1.60;99.90
29713;DHT22;16623;53.632;10.016;2024-01-11T11:23:58;1.70;99.90
29713;DHT22;16623;53.632;10.016;2024-01-11T11:26:26;2.80;99.90
29713;DHT22;16623;53.632;10.016;2024-01-11T11:28:52;1.70;99.90
29713;DHT22;16623;53.632;10.016;2024-01-11T11:31:46;1.70;99.90
29713;DHT22;16623;53.632;10.016;2024-01-11T11:34:19;1.80;99.90
29713;DHT22;16623;53.632;10.016;2024-01-11T11:36:46;1.90;99.90
29713;DHT22;16623;53.632;10.016;2024-01-11T11:39:13;1.80;99.90
29713;DHT22;16623;53.632;10.016;2024-01-11T11:41:39;1.90;99.90
29713;DHT22;16623;53.632;10.016;2024-01-11T11:44:06;1.90;99.90
29713;DHT22;16623;53.632;10.016;2024-01-11T11:52:26;1.60;99.90
29713;DHT22;16623;53.632;10.016;2024-01-11T11:54:53;1.70;99.90
29713;DHT22;16623;53.632;10.016;2024-01-11T11:57:20;1.50;99.90
29713;DHT22;16623;53.632;10.016;2024-01-11T11:59:47;1.60;99.90
29713;DHT22;16623;53.632;10.016;2024-01-11T12:02:16;1.60;99.90
29713;DHT22;16623;53.632;10.016;2024-01-11T12:04:49;1.70;99.90
29713;DHT22;16623;53.632;10.016;2024-01-11T12:07:15;1.70;99.90
29713;DHT22;16623;53.632;10.016;2024-01-11T12:09:41;2.20;99.90
29713;DHT22;16623;53.632;10.016;2024-01-11T12:12:07;1.90;99.90
29713;DHT22;16623;53.632;10.016;2024-01-11T12:14:36;1.90;99.90
29713;DHT22;16623;53.632;10.016;2024-01-11T12:17:01;1.90;99.90
29713;DHT22;16623;53.632;10.016;2024-01-11T12:19:28;1.90;99.90
29713;DHT22;16623;53.632;10.016;2024-01-11T12:21:54;2.00;99.90
29713;DHT22;16623;53.632;10.016;2024-01-11T12:24:20;2.00;99.90
29713;DHT22;16623;53.632;10.016;2024-01-11T12:26:49;2.00;99.90
29713;DHT22;16623;53.632;10.016;2024-01-11T12:29:17;2.10;99.90
29713;DHT22;16623;53.632;10.016;2024-01-11T12:31:44;2.10;99.90
29713;DHT22;16623;53.632;10.016;2024-01-11T12:34:11;2.20;99.90
29713;DHT22;16623;53.632;10.016;2024-01-11T12:36:38;2.20;99.90
29713;DHT22;16623;53.632;10.016;2024-01-11T12:39:03;2.30;99.90
29713;DHT22;16623;53.632;10.016;2024-01-11T12:41:32;2.30;99.90
29713;DHT22;16623;53.632;10.016;2024-01-11T12:43:58;2.30;99.90
29713;DHT22;16623;53.632;10.016;2024-01-11T12:46:24;2.30;99.90
29713;DHT22;16623;53.632;10.016;2024-01-11T12:48:50;2.40;99.90
29713;DHT22;16623;53.632;10.016;2024-01-11T12:51:16;2.40;99.90
29713;DHT22;16623;53.632;10.016;2024-01-11T12:53:45;2.50;99.90
29713;DHT22;16623;53.632;10.016;2024-01-11T12:56:14;2.50;99.90
29713;DHT22;16623;53.632;10.016;2024-01-11T12:58:40;2.40;99.90
29713;DHT22;16623;53.632;10.016;2024-01-11T13:01:06;2.50;99.90
29713;DHT22;16623;53.632;10.016;2024-01-11T13:03:37;2.60;99.90
29713;DHT22;16623;53.632;10.016;2024-01-11T13:06:03;2.60;99.90
29713;DHT22;16623;53.632;10.016;2024-01-11T13:08:33;2.70;99.90
29713;DHT22;16623;53.632;10.016;2024-01-11T13:11:02;2.60;99.90
29713;DHT22;16623;53.632;10.016;2024-01-11T13:13:35;2.60;99.90
29713;DHT22;16623;53.632;10.016;2024-01-11T13:16:02;2.60;99.90
29713;DHT22;16623;53.632;10.016;2024-01-11T13:18:39;2.60;99.90
29713;DHT22;16623;53.632;10.016;2024-01-11T13:21:05;2.60;99.90
29713;DHT22;16623;53.632;10.016;2024-01-11T13:23:32;2.60;99.90
29713;DHT22;16623;53.632;10.016;2024-01-11T13:25:57;2.60;99.90
29713;DHT22;16623;53.632;10.016;2024-01-11T13:28:23;2.60;99.90
29713;DHT22;16623;53.632;10.016;2024-01-11T13:30:49;2.60;99.90
29713;DHT22;16623;53.632;10.016;2024-01-11T13:33:15;2.60;99.90
29713;DHT22;16623;53.632;10.016;2024-01-11T13:35:42;2.60;99.90
29713;DHT22;16623;53.632;10.016;2024-01-11T13:38:09;2.60;99.90
29713;DHT22;16623;53.632;10.016;2024-01-11T13:40:34;2.60;99.90
29713;DHT22;16623;53.632;10.016;2024-01-11T13:43:00;2.60;99.90
29713;DHT22;16623;53.632;10.016;2024-01-11T13:45:29;2.60;99.90
29713;DHT22;16623;53.632;10.016;2024-01-11T13:47:58;2.60;99.90
29713;DHT22;16623;53.632;10.016;2024-01-11T13:50:24;2.50;99.90
29713;DHT22;16623;53.632;10.016;2024-01-11T13:52:49;2.50;99.90
29713;DHT22;16623;53.632;10.016;2024-01-11T13:55:16;2.50;99.90
29713;DHT22;16623;53.632;10.016;2024-01-11T13:57:43;2.60;99.90
29713;DHT22;16623;53.632;10.016;2024-01-11T14:00:09;2.70;99.90
29713;DHT22;16623;53.632;10.016;2024-01-11T14:02:37;2.60;99.90
29713;DHT22;16623;53.632;10.016;2024-01-11T14:05:03;2.50;99.90
29713;DHT22;16623;53.632;10.016;2024-01-11T14:07:31;2.60;99.90
29713;DHT22;16623;53.632;10.016;2024-01-11T14:09:56;2.60;99.90
29713;DHT22;16623;53.632;10.016;2024-01-11T14:12:23;2.60;99.90
29713;DHT22;16623;53.632;10.016;2024-01-11T14:14:48;2.60;99.90
29713;DHT22;16623;53.632;10.016;2024-01-11T14:17:14;2.60;99.90
29713;DHT22;16623;53.632;10.016;2024-01-11T14:19:40;2.60;99.90
29713;DHT22;16623;53.632;10.016;2024-01-11T14:22:05;2.60;99.90
29713;DHT22;16623;53.632;10.016;2024-01-11T14:24:31;2.60;99.90
29713;DHT22;16623;53.632;10.016;2024-01-11T14:26:56;2.70;99.90
29713;DHT22;16623;53.632;10.016;2024-01-11T14:29:22;2.70;99.90
29713;DHT22;16623;53.632;10.016;2024-01-11T14:31:47;2.60;99.90
29713;DHT22;16623;53.632;10.016;2024-01-11T14:34:13;2.50;99.90
29713;DHT22;16623;53.632;10.016;2024-01-11T14:36:50;2.40;99.90
29713;DHT22;16623;53.632;10.016;2024-01-11T14:39:15;2.50;99.90
29713;DHT22;16623;53.632;10.016;2024-01-11T14:41:41;2.50;99.90
29713;DHT22;16623;53.632;10.016;2024-01-11T14:44:06;2.50;99.90
29713;DHT22;16623;53.632;10.016;2024-01-11T14:46:32;2.40;99.90
29713;DHT22;16623;53.632;10.016;2024-01-11T14:48:58;2.40;99.90
29713;DHT22;16623;53.632;10.016;2024-01-11T14:51:23;2.40;99.90
29713;DHT22;16623;53.632;10.016;2024-01-11T14:53:54;2.40;99.90
29713;DHT22;16623;53.632;10.016;2024-01-11T14:56:19;2.50;99.90
29713;DHT22;16623;53.632;10.016;2024-01-11T14:58:45;2.40;99.90
29713;DHT22;16623;53.632;10.016;2024-01-11T15:01:11;2.40;99.90
29713;DHT22;16623;53.632;10.016;2024-01-11T15:03:36;2.40;99.90
29713;DHT22;16623;53.632;10.016;2024-01-11T15:06:02;2.30;99.90
29713;DHT22;16623;53.632;10.016;2024-01-11T15:08:28;2.40;99.90
29713;DHT22;16623;53.632;10.016;2024-01-11T15:10:53;2.30;99.90
29713;DHT22;16623;53.632;10.016;2024-01-11T15:13:19;2.40;99.90
29713;DHT22;16623;53.632;10.016;2024-01-11T15:15:44;2.40;99.90
29713;DHT22;16623;53.632;10.016;2024-01-11T15:18:10;2.40;99.90
29713;DHT22;16623;53.632;10.016;2024-01-11T15:20:35;2.40;99.90
29713;DHT22;16623;53.632;10.016;2024-01-11T15:23:01;2.40;99.90
29713;DHT22;16623;53.632;10.016;2024-01-11T15:25:28;2.30;99.90
29713;DHT22;16623;53.632;10.016;2024-01-11T15:27:54;2.30;99.90